Time;durP1;ratioP1;P1;durP2;ratioP2;P2;SDS_P1;SDS_P2;PMS_P1;PMS_P2;Temp;Humidity;BMP_temperature;BMP_pressure;BME280_temperature;BME280_humidity;BME280_pressure;Samples;Min_cycle;Max_cycle;Signal;HPM_P1;HPM_P2
2022/07/09 00:00:40;;;;;;;9.53;2.90;;;;;;;13.21;71.50;101687.55;1654222;85;21063;-91
2022/07/09 00:03:11;;;;;;;6.80;3.02;;;;;;;13.18;71.73;101691.41;1654875;85;21079;-90
2022/07/09 00:05:39;;;;;;;9.95;3.60;;;;;;;13.16;71.84;101690.48;1654726;85;21091;-90
2022/07/09 00:09:05;;;;;;;5.40;2.83;;;;;;;13.14;72.01;101689.54;1654947;86;21287;-89
2022/07/09 00:11:56;;;;;;;8.55;3.42;;;;;;;13.16;72.12;101693.55;1655133;86;21050;-90
2022/07/09 00:14:24;;;;;;;9.60;2.92;;;;;;;13.13;72.26;101689.48;1654039;86;21094;-89
2022/07/09 00:16:52;;;;;;;8.10;3.75;;;;;;;13.10;72.23;101686.74;1654445;86;21628;-89
2022/07/09 00:19:25;;;;;;;9.13;2.98;;;;;;;13.07;72.35;101686.67;1622109;88;22186;-89
2022/07/09 00:26:19;;;;;;;5.33;2.70;;;;;;;13.05;72.60;101689.27;1643228;87;21077;-92
2022/07/09 00:29:25;;;;;;;7.55;3.40;;;;;;;13.03;72.69;101681.72;1643495;87;21057;-92
2022/07/09 00:31:52;;;;;;;7.22;2.83;;;;;;;13.03;72.86;101685.25;1643280;87;21053;-91
2022/07/09 00:35:08;;;;;;;8.28;3.20;;;;;;;13.02;72.90;101683.88;1650573;85;21085;-93
2022/07/09 00:41:22;;;;;;;6.40;2.70;;;;;;;12.98;73.02;101678.03;1684430;85;21106;-90
2022/07/09 00:43:51;;;;;;;8.88;3.17;;;;;;;12.96;73.22;101675.34;1683775;85;21156;-92
2022/07/09 00:57:45;;;;;;;5.53;2.80;;;;;;;12.98;73.74;101670.98;1684361;85;21074;-95
2022/07/09 01:00:40;;;;;;;4.40;2.30;;;;;;;13.01;73.89;101666.24;1677761;85;21085;-90
2022/07/09 01:03:27;;;;;;;10.30;2.62;;;;;;;13.01;74.00;101671.09;1680281;84;21392;-90
2022/07/09 01:06:24;;;;;;;6.15;2.83;;;;;;;13.02;74.16;101660.09;1697777;84;21067;-92
2022/07/09 01:08:57;;;;;;;6.37;2.85;;;;;;;13.01;74.23;101656.56;1697861;84;21923;-91
2022/07/09 01:11:29;;;;;;;6.72;3.10;;;;;;;12.99;74.26;101655.62;1697832;84;21063;-90
2022/07/09 01:14:53;;;;;;;7.85;2.60;;;;;;;13.00;74.39;101653.43;1698464;84;21062;-96
2022/07/09 01:24:58;;;;;;;5.83;3.92;;;;;;;12.98;74.70;101645.88;1691972;84;21760;-91
2022/07/09 01:31:54;;;;;;;5.17;3.00;;;;;;;12.95;74.84;101634.33;1697406;84;21593;-95
2022/07/09 01:34:36;;;;;;;6.17;2.83;;;;;;;12.96;74.96;101633.05;1697108;84;21644;-92
2022/07/09 01:37:54;;;;;;;7.12;3.15;;;;;;;12.96;75.09;101630.84;1678177;84;21083;-89
2022/07/09 01:40:25;;;;;;;5.58;2.70;;;;;;;13.01;75.29;101634.53;1697467;84;21958;-91
2022/07/09 01:42:57;;;;;;;5.83;2.72;;;;;;;13.09;75.38;101624.17;1697266;83;21094;-91
2022/07/09 01:45:26;;;;;;;5.17;2.70;;;;;;;13.13;75.46;101620.33;1697667;84;21070;-90
2022/07/09 01:47:53;;;;;;;6.40;2.60;;;;;;;13.24;75.62;101616.67;1679656;84;21789;-91
2022/07/09 01:50:30;;;;;;;6.65;2.72;;;;;;;13.35;75.61;101613.93;1675309;84;21073;-90
2022/07/09 01:52:57;;;;;;;4.60;2.77;;;;;;;13.42;75.56;101611.05;1693462;83;21834;-92
2022/07/09 01:56:08;;;;;;;9.40;2.72;;;;;;;13.50;75.49;101609.92;1696965;84;21067;-91
2022/07/09 02:10:54;;;;;;;4.37;2.60;;;;;;;13.55;75.20;101599.02;1675111;85;21043;-95
2022/07/09 02:17:26;;;;;;;6.25;2.83;;;;;;;13.51;75.25;101589.21;1638902;87;21596;-93
2022/07/09 02:20:08;;;;;;;4.90;2.85;;;;;;;13.48;75.22;101583.86;1640647;87;21072;-94
2022/07/09 02:22:41;;;;;;;5.30;2.58;;;;;;;13.46;75.38;101578.92;1638061;87;21128;-93
2022/07/09 02:25:56;;;;;;;2.87;2.30;;;;;;;13.50;75.65;101573.78;1643466;86;21889;-94
2022/07/09 02:28:24;;;;;;;5.92;2.42;;;;;;;13.56;76.01;101568.64;1646704;86;21805;-92
2022/07/09 02:31:03;;;;;;;4.65;2.47;;;;;;;13.69;76.10;101567.20;1646369;86;21106;-92
2022/07/09 02:33:31;;;;;;;7.17;2.15;;;;;;;13.76;76.17;101556.36;1614429;88;21101;-92
2022/07/09 02:35:58;;;;;;;4.30;2.17;;;;;;;13.84;76.24;101556.11;1591250;88;21685;-92
2022/07/09 02:38:26;;;;;;;5.35;2.10;;;;;;;13.92;76.33;101561.15;1596524;88;21794;-92
2022/07/09 02:44:48;;;;;;;4.85;2.00;;;;;;;14.04;76.26;101559.25;1594613;89;21098;-90
2022/07/09 02:47:21;;;;;;;6.58;2.27;;;;;;;14.10;76.23;101551.87;1579281;89;21119;-91
2022/07/09 02:49:49;;;;;;;2.75;1.75;;;;;;;14.10;76.15;101550.56;1590550;89;21692;-92
2022/07/09 02:52:16;;;;;;;4.92;1.80;;;;;;;14.11;76.16;101545.27;1590374;89;22686;-90
2022/07/09 02:54:44;;;;;;;3.72;2.00;;;;;;;14.15;76.25;101547.16;1621935;86;21046;-90
2022/07/09 03:04:14;;;;;;;5.58;2.27;;;;;;;14.38;76.31;101547.67;1685941;84;21077;-90
2022/07/09 03:06:43;;;;;;;4.33;1.47;;;;;;;14.49;76.31;101553.61;1684786;85;21955;-90
2022/07/09 03:09:13;;;;;;;6.42;1.92;;;;;;;14.57;76.33;101548.98;1686177;84;21097;-90
2022/07/09 03:11:40;;;;;;;4.33;1.60;;;;;;;14.71;76.36;101551.03;1690126;83;21078;-92
2022/07/09 03:14:58;;;;;;;4.90;1.80;;;;;;;14.82;76.33;101544.20;1690775;84;21089;-93
2022/07/09 03:17:35;;;;;;;4.65;1.75;;;;;;;15.00;76.42;101541.44;1690628;84;21121;-90
2022/07/09 03:20:22;;;;;;;3.25;1.55;;;;;;;15.28;76.39;101542.45;1678015;84;21667;-90
2022/07/09 03:22:56;;;;;;;5.58;1.50;;;;;;;15.50;76.15;101536.18;1630617;87;21097;-90
2022/07/09 03:25:44;;;;;;;2.70;1.30;;;;;;;15.70;75.86;101540.52;1688592;84;21576;-92
2022/07/09 03:28:14;;;;;;;4.58;2.45;;;;;;;15.89;75.61;101545.71;1686996;84;21121;-88
2022/07/09 03:30:42;;;;;;;4.55;1.60;;;;;;;16.14;75.63;101542.98;1669058;84;21077;-88
2022/07/09 03:33:09;;;;;;;4.53;1.60;;;;;;;16.58;76.23;101537.41;1693173;83;21767;-88
2022/07/09 03:36:28;;;;;;;2.00;1.05;;;;;;;18.02;78.16;101540.67;1684875;84;21111;-90
2022/07/09 03:39:51;;;;;;;5.05;1.30;;;;;;;19.22;74.82;101531.89;1682587;85;21112;-92
2022/07/09 03:49:20;;;;;;;8.95;1.60;;;;;;;19.10;71.02;101535.86;1681861;85;21794;-90
2022/07/09 03:56:01;;;;;;;4.35;1.22;;;;;;;20.69;70.45;101539.34;1681438;83;21124;-92
2022/07/09 04:02:25;;;;;;;1.70;0.98;;;;;;;21.15;67.31;101532.84;1677449;85;21088;-90
2022/07/09 04:08:55;;;;;;;4.03;1.62;;;;;;;20.62;67.00;101531.36;1689031;84;21067;-89
2022/07/09 04:12:10;;;;;;;3.77;1.40;;;;;;;22.81;67.67;101526.39;1695557;84;21145;-92
2022/07/09 04:14:37;;;;;;;4.10;1.52;;;;;;;23.81;65.14;101523.09;1694402;84;21038;-89
2022/07/09 04:17:06;;;;;;;4.78;1.07;;;;;;;22.55;61.46;101505.27;1688505;83;21078;-90
2022/07/09 04:19:34;;;;;;;5.65;1.55;;;;;;;22.55;61.46;101505.27;1693969;83;21773;-90
2022/07/09 04:22:23;;;;;;;3.60;1.30;;;;;;;21.96;61.67;101507.24;1689032;84;21019;-92
2022/07/09 04:25:36;;;;;;;6.60;1.32;;;;;;;21.91;62.74;101498.34;1688046;84;21015;-92
2022/07/09 04:32:12;;;;;;;2.12;1.10;;;;;;;22.10;62.42;101521.37;1629443;88;21082;-93
2022/07/09 04:34:42;;;;;;;3.47;1.35;;;;;;;24.04;61.81;101522.70;1622478;87;21738;-91
2022/07/09 04:40:49;;;;;;;4.35;1.27;;;;;;;25.08;60.16;101520.58;1621922;88;21604;-91
2022/07/09 04:43:18;;;;;;;3.10;1.45;;;;;;;25.43;57.16;101510.78;1621507;88;21579;-94
2022/07/09 04:45:48;;;;;;;2.80;1.45;;;;;;;24.66;56.34;101508.02;1621350;87;21258;-92
2022/07/09 04:48:15;;;;;;;3.02;1.07;;;;;;;24.04;56.74;101500.27;1627947;87;21950;-91
2022/07/09 04:50:59;;;;;;;4.08;1.20;;;;;;;24.73;58.37;101500.70;1630996;86;21389;-94
2022/07/09 05:00:48;;;;;;;3.77;1.40;;;;;;;28.65;54.03;101499.83;1632681;84;21120;-92
2022/07/09 05:03:40;;;;;;;9.53;1.72;;;;;;;29.72;52.34;101505.02;1636785;87;21751;-94
2022/07/09 05:06:07;;;;;;;9.20;1.77;;;;;;;30.64;51.49;101503.63;1635256;87;21042;-94
2022/07/09 05:09:13;;;;;;;4.12;1.40;;;;;;;31.49;49.34;101495.47;1629323;88;21126;-93
2022/07/09 05:15:32;;;;;;;2.52;1.47;;;;;;;32.66;47.10;101495.62;1629742;86;21348;-93
2022/07/09 05:22:32;;;;;;;5.60;1.70;;;;;;;32.55;43.24;101483.91;1630031;88;21050;-95
2022/07/09 05:24:59;;;;;;;3.92;1.70;;;;;;;32.18;43.92;101493.23;1628031;86;21094;-92
2022/07/09 05:27:50;;;;;;;4.45;1.57;;;;;;;32.58;43.06;101497.87;1629548;88;21590;-91
2022/07/09 05:31:02;;;;;;;8.28;2.00;;;;;;;32.82;42.25;101501.55;1629340;87;21149;-92
2022/07/09 05:34:03;;;;;;;5.78;1.67;;;;;;;32.91;41.61;101499.67;1622034;87;21901;-93
2022/07/09 05:37:06;;;;;;;6.22;1.85;;;;;;;33.89;41.27;101502.58;1621836;88;21039;-96
2022/07/09 05:46:51;;;;;;;5.35;1.92;;;;;;;32.74;37.92;101494.69;1621579;88;21078;-94
2022/07/09 05:49:18;;;;;;;6.85;2.10;;;;;;;30.29;37.88;101486.23;1621654;88;22744;-91
2022/07/09 05:51:46;;;;;;;4.40;2.05;;;;;;;28.85;38.96;101492.73;1620624;88;21063;-92
2022/07/09 05:54:17;;;;;;;6.12;2.00;;;;;;;27.86;39.58;101485.55;1621708;88;21085;-88
2022/07/09 05:56:49;;;;;;;6.60;2.00;;;;;;;26.83;40.28;101475.44;1634427;86;21557;-89
2022/07/09 05:59:17;;;;;;;6.17;2.05;;;;;;;26.14;41.21;101480.16;1640751;86;21082;-91
2022/07/09 06:01:45;;;;;;;6.97;2.40;;;;;;;25.61;41.87;101484.23;1641000;86;21848;-95
2022/07/09 06:04:13;;;;;;;5.78;2.05;;;;;;;25.14;42.43;101475.52;1640101;87;21536;-89
2022/07/09 06:06:40;;;;;;;5.97;2.33;;;;;;;24.94;42.96;101474.63;1643239;86;21616;-88
2022/07/09 06:09:08;;;;;;;6.35;2.30;;;;;;;24.77;43.36;101474.14;1643233;87;21035;-93
2022/07/09 06:11:35;;;;;;;5.30;1.90;;;;;;;24.65;43.57;101471.27;1642626;87;21074;-90
2022/07/09 06:14:03;;;;;;;7.20;2.33;;;;;;;24.44;43.86;101463.17;1644434;87;22654;-89
2022/07/09 06:16:30;;;;;;;9.15;2.83;;;;;;;24.15;44.06;101465.11;1639915;86;21549;-92
2022/07/09 06:18:58;;;;;;;10.58;2.00;;;;;;;23.79;44.43;101463.09;1643670;87;21075;-88
2022/07/09 06:21:38;;;;;;;7.03;1.95;;;;;;;23.52;44.68;101459.09;1641808;87;21351;-89
2022/07/09 06:24:06;;;;;;;9.35;2.45;;;;;;;23.47;45.46;101459.15;1637520;87;21607;-89
2022/07/09 06:26:34;;;;;;;7.22;2.08;;;;;;;23.61;45.36;101464.73;1615458;88;21818;-90
2022/07/09 06:29:01;;;;;;;8.15;2.17;;;;;;;23.63;45.59;101468.28;1640338;87;21099;-96
2022/07/09 06:31:29;;;;;;;6.78;2.17;;;;;;;23.82;45.62;101459.02;1664263;84;21603;-93
2022/07/09 06:33:59;;;;;;;9.38;1.95;;;;;;;23.99;45.56;101460.50;1639099;87;21181;-93
2022/07/09 06:36:28;;;;;;;8.35;2.33;;;;;;;24.03;45.60;101464.44;1627676;86;21074;-92
2022/07/09 06:41:41;;;;;;;5.67;2.15;;;;;;;23.82;45.31;101459.02;1641737;85;21106;-84
2022/07/09 06:44:10;;;;;;;10.43;2.33;;;;;;;23.45;45.04;101459.63;1648266;86;21023;-88
2022/07/09 06:46:38;;;;;;;5.30;2.02;;;;;;;23.07;45.16;101462.50;1653217;85;21114;-91
2022/07/09 06:49:05;;;;;;;8.55;2.27;;;;;;;22.72;45.50;101458.95;1633799;85;21151;-88
2022/07/09 06:51:33;;;;;;;12.03;2.22;;;;;;;22.49;45.83;101461.97;1637794;86;22434;-88
2022/07/09 06:54:01;;;;;;;8.45;2.50;;;;;;;22.36;46.10;101468.39;1647830;86;21098;-91
2022/07/09 06:56:29;;;;;;;7.75;2.33;;;;;;;22.25;46.38;101463.13;1646897;85;21086;-90
2022/07/09 06:59:36;;;;;;;8.15;2.40;;;;;;;22.27;46.67;101458.66;1634774;86;21060;-96
2022/07/09 07:02:05;;;;;;;7.08;2.05;;;;;;;22.33;46.76;101457.23;1648307;86;21661;-93
2022/07/09 07:04:33;;;;;;;6.45;2.00;;;;;;;22.30;46.98;101457.30;1623190;87;21856;-96
2022/07/09 07:07:22;;;;;;;6.22;2.37;;;;;;;22.30;47.13;101455.95;1641289;86;21098;-92
2022/07/09 07:09:52;;;;;;;7.22;2.22;;;;;;;22.41;47.22;101451.77;1684691;84;21097;-95
2022/07/09 07:12:19;;;;;;;4.65;1.87;;;;;;;22.49;47.11;101449.43;1669495;84;21102;-91
2022/07/09 07:14:46;;;;;;;7.70;3.33;;;;;;;22.59;47.08;101453.33;1699306;84;21069;-95
2022/07/09 07:17:14;;;;;;;7.25;2.80;;;;;;;22.68;47.11;101451.41;1682077;84;21726;-94
2022/07/09 07:19:41;;;;;;;5.30;2.20;;;;;;;22.68;46.84;101439.33;1683366;84;21282;-90
2022/07/09 07:22:11;;;;;;;7.15;2.12;;;;;;;22.70;46.66;101451.39;1680359;84;21112;-91
2022/07/09 07:24:38;;;;;;;7.58;2.60;;;;;;;22.74;46.57;101456.27;1687821;84;21069;-91
2022/07/09 07:27:07;;;;;;;8.80;2.65;;;;;;;22.74;46.38;101450.89;1696951;84;21074;-91
2022/07/09 07:29:35;;;;;;;4.20;2.25;;;;;;;22.74;46.19;101453.58;1688447;84;21768;-89
2022/07/09 07:32:02;;;;;;;7.15;2.67;;;;;;;22.62;46.05;101456.86;1694669;83;21078;-91
2022/07/09 07:34:36;;;;;;;5.67;2.58;;;;;;;22.54;46.00;101456.52;1699992;84;21504;-90
2022/07/09 07:37:04;;;;;;;5.10;1.87;;;;;;;22.53;46.02;101460.13;1694101;83;21031;-89
2022/07/09 07:39:34;;;;;;;7.33;2.72;;;;;;;22.60;46.07;101453.31;1695960;84;21059;-91
2022/07/09 07:42:19;;;;;;;7.62;2.58;;;;;;;22.75;46.04;101448.19;1694214;84;21075;-89
2022/07/09 07:44:47;;;;;;;6.95;2.40;;;;;;;22.82;45.78;101444.95;1690976;84;21082;-90
2022/07/09 07:47:16;;;;;;;6.40;1.95;;;;;;;22.93;46.12;101444.80;1688968;82;22340;-90
2022/07/09 07:50:06;;;;;;;8.38;2.10;;;;;;;23.12;45.91;101438.24;1674215;85;40661;-92
2022/07/09 07:52:35;;;;;;;4.87;2.02;;;;;;;23.23;45.51;101436.73;1672040;84;21124;-89
2022/07/09 07:55:07;;;;;;;7.45;1.90;;;;;;;23.44;45.50;101428.33;1709480;82;21864;-88
2022/07/09 07:57:40;;;;;;;6.35;2.00;;;;;;;23.74;45.32;101431.80;1679688;84;21389;-88
2022/07/09 08:00:26;;;;;;;17.05;2.58;;;;;;;24.03;44.63;101425.91;1695265;84;21604;-90
2022/07/09 08:02:54;;;;;;;6.12;2.15;;;;;;;24.07;44.10;101422.23;1690674;83;21099;-90
2022/07/09 08:05:22;;;;;;;7.78;2.00;;;;;;;23.98;43.89;101427.33;1620104;86;21134;-87
2022/07/09 08:07:50;;;;;;;6.62;2.52;;;;;;;23.89;43.62;101426.63;1643767;85;21790;-88
2022/07/09 08:10:18;;;;;;;5.97;2.70;;;;;;;23.77;43.45;101435.80;1693418;84;21043;-91
2022/07/09 08:12:45;;;;;;;4.92;2.52;;;;;;;23.47;43.43;101432.28;1688618;84;21035;-88
2022/07/09 08:15:12;;;;;;;4.75;2.52;;;;;;;23.30;43.50;101427.66;1695200;84;21110;-90
2022/07/09 08:17:40;;;;;;;7.40;2.40;;;;;;;23.17;43.50;101441.75;1686186;83;21599;-90
2022/07/09 08:20:10;;;;;;;6.85;2.52;;;;;;;23.17;43.96;101430.13;1689527;84;22705;-88
2022/07/09 08:22:37;;;;;;;4.67;2.20;;;;;;;23.19;43.80;101425.16;1690744;84;21086;-87
2022/07/09 08:25:05;;;;;;;5.75;2.45;;;;;;;23.23;43.91;101425.52;1686692;84;21096;-89
2022/07/09 08:27:32;;;;;;;5.03;2.42;;;;;;;23.34;43.87;101426.69;1667693;84;21051;-90
2022/07/09 08:30:00;;;;;;;7.70;2.52;;;;;;;23.41;43.24;101431.52;1692212;84;21579;-89
2022/07/09 08:32:28;;;;;;;13.48;3.10;;;;;;;23.34;43.12;101433.87;1695110;84;21927;-90
2022/07/09 08:34:56;;;;;;;3.12;1.72;;;;;;;23.18;42.87;101443.97;1688302;83;21088;-90
2022/07/09 08:37:24;;;;;;;5.50;1.87;;;;;;;22.94;43.08;101438.06;1683220;84;21086;-89
2022/07/09 08:39:51;;;;;;;5.83;2.25;;;;;;;22.75;42.99;101432.52;1662855;84;21090;-88
2022/07/09 08:42:26;;;;;;;3.58;2.00;;;;;;;22.61;43.07;101434.95;1684238;84;21094;-90
2022/07/09 08:44:54;;;;;;;6.17;3.02;;;;;;;22.57;43.37;101442.61;1694381;84;21869;-88
2022/07/09 08:47:21;;;;;;;6.12;2.37;;;;;;;22.84;43.66;101444.47;1689385;84;21090;-88
2022/07/09 08:49:48;;;;;;;3.52;2.08;;;;;;;23.12;43.77;101434.68;1687253;84;21086;-90
2022/07/09 08:52:16;;;;;;;7.72;2.40;;;;;;;23.40;43.78;101440.01;1688386;84;21092;-88
2022/07/09 08:54:44;;;;;;;4.42;2.15;;;;;;;23.63;43.68;101443.66;1691340;84;21627;-88
2022/07/09 08:57:12;;;;;;;4.42;2.12;;;;;;;23.88;43.18;101445.03;1678336;84;21895;-90
2022/07/09 08:59:40;;;;;;;7.70;2.45;;;;;;;23.92;42.50;101440.90;1686179;84;21101;-90
2022/07/09 09:02:12;;;;;;;4.92;1.90;;;;;;;23.88;41.90;101432.47;1673303;84;21078;-89
2022/07/09 09:04:42;;;;;;;5.37;2.40;;;;;;;23.63;41.70;101427.97;1652342;85;21671;-90
2022/07/09 09:07:21;;;;;;;7.22;2.80;;;;;;;23.58;41.92;101429.87;1619760;86;21125;-90
2022/07/09 09:09:50;;;;;;;5.90;2.12;;;;;;;23.62;41.89;101435.15;1654094;86;21825;-87
2022/07/09 09:12:22;;;;;;;7.17;1.87;;;;;;;23.71;41.88;101428.73;1652379;85;21090;-87
2022/07/09 09:14:51;;;;;;;6.12;2.58;;;;;;;23.98;42.12;101430.02;1649386;86;21099;-90
2022/07/09 09:17:19;;;;;;;6.62;2.02;;;;;;;24.33;41.81;101429.76;1690885;84;21073;-89
2022/07/09 09:19:46;;;;;;;6.05;2.33;;;;;;;24.62;41.78;101436.33;1687498;83;21070;-86
2022/07/09 09:22:17;;;;;;;6.92;2.00;;;;;;;24.86;41.35;101435.35;1697654;83;22566;-90
2022/07/09 09:24:50;;;;;;;7.20;2.00;;;;;;;24.86;41.01;101447.00;1692214;84;21648;-90
2022/07/09 09:27:17;;;;;;;4.58;2.08;;;;;;;24.87;40.82;101432.63;1663406;84;21136;-90
2022/07/09 09:29:51;;;;;;;4.80;1.82;;;;;;;24.70;40.78;101446.92;1679116;84;21082;-90
2022/07/09 09:32:22;;;;;;;8.00;1.95;;;;;;;24.47;40.74;101440.21;1697153;84;21087;-89
2022/07/09 09:34:50;;;;;;;3.92;1.80;;;;;;;24.25;41.04;101440.69;1681345;84;22482;-90
2022/07/09 09:37:29;;;;;;;5.83;1.77;;;;;;;24.18;41.20;101440.37;1696710;83;21055;-92
2022/07/09 09:39:57;;;;;;;3.72;1.80;;;;;;;24.23;41.29;101443.87;1691678;84;21070;-89
2022/07/09 09:42:27;;;;;;;6.22;2.10;;;;;;;24.23;41.30;101436.23;1688493;84;21075;-89
2022/07/09 09:44:54;;;;;;;4.37;2.40;;;;;;;24.20;41.43;101441.23;1699187;83;21149;-88
2022/07/09 09:47:24;;;;;;;3.75;1.75;;;;;;;24.32;41.55;101443.23;1682028;83;21890;-88
2022/07/09 09:49:52;;;;;;;4.00;1.90;;;;;;;24.42;41.19;101438.98;1697582;83;21564;-89
2022/07/09 09:52:20;;;;;;;5.08;2.12;;;;;;;24.47;41.23;101433.48;1698013;83;21089;-87
2022/07/09 09:54:49;;;;;;;6.78;2.00;;;;;;;24.50;41.12;101435.23;1679970;84;21066;-89
2022/07/09 09:57:16;;;;;;;3.33;1.60;;;;;;;24.52;41.18;101426.23;1689769;84;21083;-88
2022/07/09 09:59:47;;;;;;;4.35;1.87;;;;;;;24.61;41.27;101424.69;1691304;83;22580;-87
2022/07/09 10:02:15;;;;;;;5.25;1.77;;;;;;;24.88;41.38;101422.27;1689764;83;21083;-87
2022/07/09 10:04:46;;;;;;;3.92;1.67;;;;;;;25.08;40.95;101419.57;1692345;84;21357;-89
2022/07/09 10:07:15;;;;;;;3.70;1.65;;;;;;;25.23;40.88;101413.83;1670747;84;21699;-88
2022/07/09 10:09:55;;;;;;;3.50;1.57;;;;;;;25.24;40.56;101410.19;1695963;84;21165;-88
2022/07/09 10:12:33;;;;;;;4.70;1.70;;;;;;;25.02;40.50;101408.48;1683792;84;21950;-87
2022/07/09 10:15:01;;;;;;;5.80;1.80;;;;;;;24.62;40.37;101411.63;1688802;84;21078;-89
2022/07/09 10:17:34;;;;;;;4.55;1.40;;;;;;;24.24;40.80;101407.96;1672339;84;21110;-88
2022/07/09 10:20:06;;;;;;;4.83;1.80;;;;;;;23.95;41.07;101404.98;1694484;84;21328;-88
2022/07/09 10:22:40;;;;;;;5.45;1.72;;;;;;;23.73;41.44;101405.39;1699279;83;21082;-86
2022/07/09 10:25:14;;;;;;;3.58;1.60;;;;;;;23.68;41.76;101400.09;1695188;84;21926;-86
2022/07/09 10:27:44;;;;;;;;;;;;;;;23.61;41.93;101390.83;1678028;84;21615;-86
2022/07/09 10:30:29;;;;;;;2.72;1.20;;;;;;;23.58;42.03;101392.25;1689332;83;20202;-88
2022/07/09 10:33:12;;;;;;;3.20;1.70;;;;;;;23.60;42.39;101391.30;1688343;84;21128;-86
2022/07/09 10:35:51;;;;;;;7.65;2.17;;;;;;;23.85;42.44;101385.00;1684051;84;21074;-87
2022/07/09 10:38:18;;;;;;;3.05;1.47;;;;;;;24.25;42.68;101382.84;1682124;84;21942;-87
2022/07/09 10:40:47;;;;;;;4.28;1.25;;;;;;;24.56;42.39;101379.95;1688072;83;21074;-86
2022/07/09 10:43:23;;;;;;;4.95;1.37;;;;;;;24.88;41.99;101379.65;1688168;83;21090;-87
2022/07/09 10:45:50;;;;;;;4.12;1.30;;;;;;;25.19;41.61;101376.61;1638075;84;21357;-84
2022/07/09 10:48:18;;;;;;;3.70;1.47;;;;;;;25.43;41.20;101378.25;1622641;86;21082;-90
2022/07/09 10:50:48;;;;;;;3.00;1.30;;;;;;;25.41;40.79;101372.92;1677230;84;21873;-85
2022/07/09 10:53:37;;;;;;;3.15;1.30;;;;;;;25.50;40.55;101377.16;1686455;83;21070;-86
2022/07/09 10:56:12;;;;;;;5.50;1.30;;;;;;;25.58;40.37;101367.52;1664969;84;21108;-91
2022/07/09 10:58:40;;;;;;;3.92;1.35;;;;;;;25.42;40.06;101376.50;1673262;83;21705;-87
2022/07/09 11:01:08;;;;;;;2.45;1.35;;;;;;;25.38;40.07;101368.95;1617850;86;21089;-87
2022/07/09 11:03:36;;;;;;;3.00;1.30;;;;;;;25.50;40.21;101372.24;1674286;83;21949;-87
2022/07/09 11:06:04;;;;;;;3.22;1.20;;;;;;;25.60;39.99;101377.34;1683012;85;21648;-86
2022/07/09 11:08:32;;;;;;;2.30;1.15;;;;;;;25.58;39.92;101379.20;1681755;85;21107;-86
2022/07/09 11:11:00;;;;;;;2.65;1.20;;;;;;;25.68;40.25;101368.17;1680447;85;21137;-86
2022/07/09 11:13:28;;;;;;;2.02;1.17;;;;;;;25.77;40.44;101380.92;1673396;84;22358;-87
2022/07/09 11:16:01;;;;;;;1.87;1.00;;;;;;;25.79;40.05;101373.67;1681631;85;21881;-85
2022/07/09 11:18:29;;;;;;;2.05;0.65;;;;;;;25.68;39.98;101372.21;1673334;85;21089;-88
2022/07/09 11:20:56;;;;;;;2.20;1.00;;;;;;;25.49;39.80;101372.72;1680548;84;21808;-87
2022/07/09 11:23:24;;;;;;;3.72;1.17;;;;;;;25.32;39.85;101377.65;1681063;83;21101;-86
2022/07/09 11:25:51;;;;;;;2.10;0.78;;;;;;;25.28;40.03;101367.88;1677732;84;21355;-86
2022/07/09 11:28:24;;;;;;;3.62;1.30;;;;;;;25.38;40.25;101362.22;1680857;85;22543;-86
2022/07/09 11:31:04;;;;;;;1.15;0.93;;;;;;;25.57;40.29;101362.59;1678383;85;21349;-85
2022/07/09 11:36:20;;;;;;;4.47;2.65;;;;;;;25.85;40.02;101360.47;1691530;84;21062;-88
2022/07/09 11:38:50;;;;;;;3.77;1.25;;;;;;;25.87;39.87;101354.56;1697304;84;21077;-85
2022/07/09 11:41:17;;;;;;;4.25;1.30;;;;;;;25.65;40.06;101354.29;1695821;84;22459;-89
2022/07/09 11:43:50;;;;;;;6.53;3.70;;;;;;;25.28;39.94;101336.89;1697878;83;22005;-88
2022/07/09 11:46:19;;;;;;;1.27;1.17;;;;;;;25.04;40.35;101360.84;1697095;83;21564;-91
2022/07/09 11:48:56;;;;;;;4.42;1.27;;;;;;;24.83;40.80;101348.34;1672969;84;21098;-90
2022/07/09 11:51:34;;;;;;;4.55;1.82;;;;;;;24.72;40.95;101358.92;1697993;83;22278;-90
2022/07/09 11:54:02;;;;;;;5.92;1.57;;;;;;;24.47;41.67;101363.52;1694183;84;21963;-87
2022/07/09 11:56:49;;;;;;;2.72;1.07;;;;;;;24.34;42.09;101363.38;1696782;84;21562;-87
2022/07/09 11:59:30;;;;;;;2.62;1.20;;;;;;;24.39;42.18;101354.74;1695786;83;21647;-85
2022/07/09 12:01:59;;;;;;;4.85;1.30;;;;;;;24.32;41.31;101358.02;1679746;84;22021;-90
2022/07/09 12:04:31;;;;;;;4.40;1.65;;;;;;;24.29;41.59;101353.16;1695025;83;21146;-87
2022/07/09 12:07:12;;;;;;;3.83;1.70;;;;;;;24.52;41.62;101348.66;1684121;84;21904;-90
2022/07/09 12:09:39;;;;;;;3.85;1.65;;;;;;;24.79;41.67;101345.75;1695236;84;21082;-94
2022/07/09 12:12:07;;;;;;;1.62;0.90;;;;;;;24.96;40.80;101340.84;1696599;84;21082;-90
2022/07/09 12:14:35;;;;;;;2.17;1.07;;;;;;;24.99;40.50;101331.80;1690591;84;21099;-90
2022/07/09 12:17:03;;;;;;;3.85;2.87;;;;;;;25.04;40.20;101332.56;1694019;84;21082;-90
2022/07/09 12:19:31;;;;;;;3.05;1.50;;;;;;;25.02;40.01;101339.33;1684833;84;22695;-88
2022/07/09 12:21:58;;;;;;;2.47;0.95;;;;;;;25.05;39.82;101331.63;1687567;84;21212;-87
2022/07/09 12:24:29;;;;;;;3.70;1.17;;;;;;;25.12;40.02;101327.84;1693719;84;21639;-90
2022/07/09 12:26:56;;;;;;;2.08;1.02;;;;;;;25.31;40.02;101324.23;1693762;84;21585;-88
2022/07/09 12:29:23;;;;;;;3.27;2.17;;;;;;;25.61;39.98;101318.91;1691607;84;21121;-87
2022/07/09 12:31:54;;;;;;;4.37;1.47;;;;;;;25.83;39.41;101312.88;1688547;84;21748;-87
2022/07/09 12:34:23;;;;;;;5.28;1.80;;;;;;;25.88;38.75;101319.03;1692813;84;21066;-90
2022/07/09 12:36:50;;;;;;;3.27;1.37;;;;;;;25.90;38.47;101313.12;1694606;83;21126;-92
2022/07/09 12:39:17;;;;;;;3.60;1.32;;;;;;;25.92;38.63;101314.90;1696779;84;21066;-89
2022/07/09 12:41:45;;;;;;;3.52;2.30;;;;;;;26.03;38.38;101308.28;1694879;84;21082;-85
2022/07/09 12:44:12;;;;;;;2.05;1.20;;;;;;;25.85;38.33;101309.23;1695560;83;21897;-87
2022/07/09 12:46:44;;;;;;;3.58;3.27;;;;;;;25.54;38.25;101302.48;1693251;83;21070;-87
2022/07/09 12:49:12;;;;;;;5.95;3.62;;;;;;;25.15;38.22;101307.58;1671171;84;21722;-87
2022/07/09 12:51:39;;;;;;;2.20;1.55;;;;;;;24.72;38.59;101319.45;1636383;86;21166;-87
2022/07/09 12:54:06;;;;;;;2.60;1.30;;;;;;;24.36;38.58;101311.31;1634996;86;21632;-87
2022/07/09 12:56:34;;;;;;;1.65;1.20;;;;;;;23.97;38.71;101313.98;1633241;86;21887;-88
2022/07/09 12:59:01;;;;;;;6.65;1.67;;;;;;;23.66;39.01;101314.57;1611443;87;21727;-88
2022/07/09 13:01:29;;;;;;;3.12;2.08;;;;;;;23.41;39.41;101303.44;1636164;86;21115;-87
2022/07/09 13:03:56;;;;;;;1.85;1.15;;;;;;;23.27;39.61;101298.78;1630176;85;21127;-89
2022/07/09 13:06:33;;;;;;;3.05;1.40;;;;;;;23.24;40.01;101295.70;1642000;85;21179;-87
2022/07/09 13:09:03;;;;;;;3.15;1.20;;;;;;;23.50;40.29;101287.61;1641840;85;21924;-91
2022/07/09 13:11:30;;;;;;;2.62;1.82;;;;;;;23.77;39.46;101293.33;1645965;85;21155;-91
2022/07/09 13:13:58;;;;;;;6.97;1.22;;;;;;;23.84;39.21;101292.31;1643584;85;21146;-85
2022/07/09 13:16:25;;;;;;;1.65;1.37;;;;;;;23.92;39.24;101284.95;1640846;87;21147;-85
2022/07/09 13:18:53;;;;;;;3.12;2.40;;;;;;;24.02;38.79;101276.22;1643004;85;21126;-88
2022/07/09 13:21:20;;;;;;;1.80;1.15;;;;;;;24.11;38.43;101284.08;1639878;86;22502;-84
2022/07/09 13:23:48;;;;;;;3.37;1.40;;;;;;;24.11;38.18;101271.10;1639849;86;21111;-86
2022/07/09 13:26:15;;;;;;;3.95;2.42;;;;;;;24.12;38.05;101268.38;1654290;84;21084;-89
2022/07/09 13:28:42;;;;;;;4.25;2.20;;;;;;;23.99;37.74;101273.15;1686026;83;21120;-89
2022/07/09 13:31:10;;;;;;;2.10;1.40;;;;;;;23.94;38.18;101271.02;1680745;84;21077;-86
2022/07/09 13:33:37;;;;;;;3.80;1.70;;;;;;;23.98;38.36;101272.70;1688847;84;21913;-90
2022/07/09 13:36:05;;;;;;;3.00;2.08;;;;;;;23.99;38.36;101272.27;1687987;84;21120;-90
2022/07/09 13:38:32;;;;;;;1.62;1.50;;;;;;;23.96;38.23;101275.89;1683992;84;21082;-88
2022/07/09 13:41:00;;;;;;;2.25;1.50;;;;;;;23.90;38.18;101274.69;1682153;83;21105;-92
2022/07/09 13:43:29;;;;;;;3.98;1.22;;;;;;;23.89;38.14;101289.05;1684861;84;21129;-94
2022/07/09 13:45:57;;;;;;;1.85;1.20;;;;;;;23.94;37.82;101268.80;1689336;84;21725;-89